Time;durP1;ratioP1;P1;durP2;ratioP2;P2;SDS_P1;SDS_P2;PMS_P1;PMS_P2;Temp;Humidity;BMP_temperature;BMP_pressure;BME280_temperature;BME280_humidity;BME280_pressure;Samples;Min_cycle;Max_cycle;Signal;HPM_P1;HPM_P2
2024/04/14 00:01:49;;;;;;;17.50;3.50;;;;;;;13.34;100.00;101360.00;5306832;26;20341;-71
2024/04/14 00:04:14;;;;;;;16.33;3.30;;;;;;;13.10;100.00;101320.94;5301781;26;20654;-71
2024/04/14 00:06:40;;;;;;;21.53;3.60;;;;;;;13.43;100.00;101403.75;5317797;26;20657;-71
2024/04/14 00:09:05;;;;;;;15.53;3.33;;;;;;;13.44;100.00;101389.25;5340486;26;20297;-71
2024/04/14 00:11:31;;;;;;;14.50;3.63;;;;;;;12.99;100.00;101361.94;5311904;26;20295;-71
2024/04/14 00:13:56;;;;;;;17.00;3.50;;;;;;;13.47;100.00;101396.91;5338560;26;20284;-71
2024/04/14 00:16:22;;;;;;;14.00;3.10;;;;;;;13.29;100.00;101417.19;5333973;26;20255;-71
2024/04/14 00:18:47;;;;;;;13.63;2.93;;;;;;;12.99;100.00;101346.63;5337487;26;20294;-71
2024/04/14 00:21:12;;;;;;;18.60;2.80;;;;;;;12.57;100.00;101275.03;5339466;26;20759;-71
2024/04/14 00:23:38;;;;;;;15.67;3.00;;;;;;;13.26;100.00;101416.78;5309879;26;22447;-71
2024/04/14 00:26:03;;;;;;;15.80;2.97;;;;;;;12.74;100.00;101332.03;5342882;26;20298;-71
2024/04/14 00:28:29;;;;;;;14.50;3.23;;;;;;;12.49;100.00;101312.88;5334207;26;20293;-71
2024/04/14 00:30:54;;;;;;;11.57;2.53;;;;;;;13.37;100.00;101459.28;5336537;26;20246;-72
2024/04/14 00:33:20;;;;;;;14.13;3.30;;;;;;;13.20;100.00;101490.28;5299138;26;20338;-71
2024/04/14 00:35:45;;;;;;;15.50;3.00;;;;;;;13.09;100.00;101467.44;5344853;26;20242;-71
2024/04/14 00:38:11;;;;;;;12.47;2.50;;;;;;;13.06;100.00;101474.03;5338823;26;20314;-71
2024/04/14 00:40:36;;;;;;;12.97;3.00;;;;;;;13.08;100.00;101484.63;5336496;26;20361;-71
2024/04/14 00:43:02;;;;;;;20.23;2.63;;;;;;;13.12;100.00;101516.34;5338782;26;20669;-71
2024/04/14 00:45:27;;;;;;;12.13;2.37;;;;;;;12.73;100.00;101481.09;5340807;26;20428;-71
2024/04/14 00:47:54;;;;;;;10.90;2.37;;;;;;;13.00;100.00;101506.34;5316195;26;20247;-71
2024/04/14 00:50:20;;;;;;;18.10;3.23;;;;;;;12.72;100.00;101491.03;5321851;26;20613;-71
2024/04/14 00:52:47;;;;;;;16.20;3.40;;;;;;;11.92;100.00;101363.22;5309950;26;20491;-71
2024/04/14 00:55:14;;;;;;;15.77;2.93;;;;;;;12.86;100.00;101508.94;5336690;26;20590;-71
2024/04/14 00:57:40;;;;;;;14.30;2.60;;;;;;;12.59;100.00;101480.19;5342581;26;25085;-71
2024/04/14 01:00:07;;;;;;;18.13;2.90;;;;;;;12.64;100.00;101536.94;5335324;26;20587;-71
2024/04/14 01:02:35;;;;;;;12.53;2.67;;;;;;;12.73;100.00;101508.88;5335922;26;20481;-71
2024/04/14 01:05:01;;;;;;;15.90;2.57;;;;;;;12.58;100.00;101526.94;5347895;26;21026;-71
2024/04/14 01:07:27;;;;;;;13.80;2.80;;;;;;;12.65;100.00;101517.91;5303101;26;20604;-71
2024/04/14 01:09:53;;;;;;;16.97;2.57;;;;;;;12.92;100.00;101533.41;5333657;26;20527;-71
2024/04/14 01:12:18;;;;;;;15.33;2.77;;;;;;;12.84;100.00;101575.63;5337111;26;20473;-72
2024/04/14 01:14:44;;;;;;;14.90;2.60;;;;;;;12.62;100.00;101574.00;5334246;26;20775;-72
2024/04/14 01:17:10;;;;;;;15.40;2.70;;;;;;;12.65;100.00;101582.50;5330392;26;20247;-71
2024/04/14 01:19:35;;;;;;;10.47;2.40;;;;;;;12.38;100.00;101553.69;5340186;26;20799;-71
2024/04/14 01:22:01;;;;;;;13.90;2.90;;;;;;;12.27;100.00;101533.53;5337327;26;20244;-71
2024/04/14 01:24:26;;;;;;;13.07;2.37;;;;;;;12.58;100.00;101592.41;5335428;26;20252;-71
2024/04/14 01:26:52;;;;;;;12.00;2.43;;;;;;;12.25;100.00;101551.72;5333934;26;20353;-71
2024/04/14 01:29:18;;;;;;;17.15;2.85;;;;;;;12.25;100.00;101610.06;5332653;26;20302;-72
2024/04/14 01:31:44;;;;;;;12.70;2.80;;;;;;;12.28;100.00;101605.13;5322105;26;20251;-71
2024/04/14 01:34:09;;;;;;;15.80;2.80;;;;;;;11.84;100.00;101525.41;5335364;26;20485;-70
2024/04/14 01:36:35;;;;;;;12.80;2.80;;;;;;;12.35;100.00;101637.47;5333653;26;20599;-70
2024/04/14 01:39:00;;;;;;;10.57;1.83;;;;;;;12.40;100.00;101638.56;5299477;26;20284;-70
2024/04/14 01:41:25;;;;;;;10.50;2.17;;;;;;;12.12;100.00;101624.19;5304149;26;20345;-71
2024/04/14 01:43:51;;;;;;;13.63;2.63;;;;;;;11.98;100.00;101623.22;5308733;26;20247;-72
2024/04/14 01:46:16;;;;;;;14.10;2.23;;;;;;;11.85;100.00;101615.81;5306694;26;20259;-71
2024/04/14 01:48:42;;;;;;;19.67;3.13;;;;;;;12.16;100.00;101649.69;5335670;26;20247;-71
2024/04/14 01:51:07;;;;;;;17.03;2.97;;;;;;;11.99;100.00;101659.84;5328827;26;20289;-72
2024/04/14 01:53:33;;;;;;;12.87;2.27;;;;;;;11.99;100.00;101698.31;5302949;26;20250;-71
2024/04/14 01:55:59;;;;;;;;;;;;;;;12.33;100.00;101731.84;5368767;21;20100;-73
2024/04/14 01:58:25;;;;;;;15.50;2.77;;;;;;;9.96;100.00;101422.88;5365683;26;20360;-73
2024/04/14 02:00:51;;;;;;;17.65;2.65;;;;;;;9.84;100.00;101403.72;5360700;26;20470;-73
2024/04/14 02:03:16;;;;;;;14.60;2.55;;;;;;;10.31;100.00;101476.88;5328928;26;20536;-74
2024/04/14 02:05:42;;;;;;;10.00;2.00;;;;;;;10.84;100.00;101593.06;5357862;26;20242;-74
2024/04/14 02:08:07;;;;;;;12.50;2.50;;;;;;;10.14;100.00;101493.06;5334454;26;20233;-74
2024/04/14 02:10:38;;;;;;;12.03;2.00;;;;;;;12.10;100.00;101817.19;5355831;26;20260;-74
2024/04/14 02:13:04;;;;;;;12.40;2.67;;;;;;;9.90;100.00;101485.22;5327577;26;20826;-74
2024/04/14 02:15:29;;;;;;;9.90;1.83;;;;;;;10.41;100.00;101582.03;5333106;26;20576;-74
2024/04/14 02:17:55;;;;;;;15.93;3.13;;;;;;;9.93;100.00;101514.34;5351482;26;20257;-74
2024/04/14 02:20:20;;;;;;;14.97;2.60;;;;;;;9.44;100.00;101453.88;5328953;26;20815;-73
2024/04/14 02:22:46;;;;;;;13.80;2.30;;;;;;;10.51;100.00;101605.94;5360180;26;20279;-73
2024/04/14 02:25:11;;;;;;;;;;;;;;;11.66;100.00;101801.81;5332001;26;20125;-73
2024/04/14 02:27:36;;;;;;;;;;;;;;;11.76;100.00;101792.44;5339985;26;20312;-74
2024/04/14 02:30:02;;;;;;;15.20;2.70;;;;;;;10.00;100.00;101514.47;5366556;26;20252;-74
2024/04/14 02:32:27;;;;;;;13.45;2.80;;;;;;;9.64;100.00;101438.19;5329157;26;25086;-73
2024/04/14 02:34:53;;;;;;;12.77;2.33;;;;;;;9.96;100.00;101474.63;5362384;26;20141;-74
2024/04/14 02:37:18;;;;;;;14.97;3.23;;;;;;;9.55;100.00;101468.72;5361175;26;20239;-74
2024/04/14 02:39:44;;;;;;;13.90;2.97;;;;;;;10.32;100.00;101596.53;5368445;26;20797;-73
2024/04/14 02:42:09;;;;;;;13.37;2.13;;;;;;;9.88;100.00;101575.66;5336223;26;20248;-73
2024/04/14 02:44:35;;;;;;;15.07;3.20;;;;;;;9.44;100.00;101488.69;5360373;26;20239;-74
2024/04/14 02:47:00;;;;;;;11.25;2.00;;;;;;;10.32;100.00;101674.28;5361886;26;21476;-73
2024/04/14 02:49:28;;;;;;;12.50;2.73;;;;;;;9.59;100.00;101545.00;5352341;26;20238;-74
2024/04/14 02:51:54;;;;;;;12.47;3.07;;;;;;;9.21;100.00;101510.03;5328064;26;20298;-74
2024/04/14 02:54:19;;;;;;;9.83;1.93;;;;;;;11.32;100.00;101822.72;5326744;26;20486;-74
2024/04/14 02:56:45;;;;;;;20.97;2.57;;;;;;;9.74;100.00;101602.19;5359362;26;20500;-74
2024/04/14 02:59:11;;;;;;;13.73;2.30;;;;;;;9.18;100.00;101507.69;5363103;26;21052;-74
2024/04/14 03:01:36;;;;;;;15.10;2.80;;;;;;;10.15;100.00;101693.13;5333487;26;20281;-73
2024/04/14 03:04:01;;;;;;;20.15;2.95;;;;;;;9.62;100.00;101606.25;5358086;26;20605;-73
2024/04/14 03:06:27;;;;;;;21.33;3.40;;;;;;;10.26;100.00;101680.31;5336310;26;20237;-73
2024/04/14 03:08:52;;;;;;;11.73;2.30;;;;;;;9.58;100.00;101679.13;5327103;26;20231;-73
2024/04/14 03:11:18;;;;;;;13.87;2.90;;;;;;;9.86;100.00;101711.66;5363541;26;20907;-73
2024/04/14 03:13:43;;;;;;;16.40;3.10;;;;;;;10.79;100.00;101835.16;5359438;26;20135;-74
2024/04/14 03:16:09;;;;;;;13.60;3.10;;;;;;;9.43;100.00;101614.69;5360688;26;20608;-74
2024/04/14 03:18:35;;;;;;;17.23;3.07;;;;;;;9.66;100.00;101673.72;5323790;26;20285;-73
2024/04/14 03:21:02;;;;;;;13.93;2.60;;;;;;;9.65;100.00;101714.91;5357184;26;20350;-74
2024/04/14 03:23:28;;;;;;;17.30;2.50;;;;;;;9.86;100.00;101743.81;5341220;26;20761;-74
2024/04/14 03:25:55;;;;;;;11.27;2.30;;;;;;;9.01;100.00;101565.78;5363879;26;20476;-74
2024/04/14 03:28:22;;;;;;;10.63;2.80;;;;;;;9.32;100.00;101706.94;5323268;26;20476;-73
2024/04/14 03:30:48;;;;;;;10.93;2.10;;;;;;;9.64;100.00;101783.72;5360667;26;20464;-73
2024/04/14 03:33:13;;;;;;;16.40;2.60;;;;;;;8.79;100.00;101669.00;5325384;26;21175;-73
2024/04/14 03:35:39;;;;;;;10.00;2.57;;;;;;;9.37;100.00;101779.53;5334061;26;20246;-74
2024/04/14 03:38:05;;;;;;;12.30;1.80;;;;;;;9.70;100.00;101867.94;5364202;26;20243;-74
2024/04/14 03:40:30;;;;;;;15.77;2.50;;;;;;;8.47;100.00;101651.06;5362376;26;20472;-73
2024/04/14 03:42:56;;;;;;;11.93;1.80;;;;;;;8.51;100.00;101739.84;5353955;26;20250;-73
2024/04/14 03:45:24;;;;;;;13.77;2.33;;;;;;;9.35;100.00;101861.91;5355439;26;20311;-73
2024/04/14 03:47:52;;;;;;;11.70;2.20;;;;;;;9.09;100.00;101829.91;5337018;26;20238;-73
2024/04/14 03:50:18;;;;;;;9.47;1.83;;;;;;;8.86;100.00;101786.06;5362080;26;20588;-74
2024/04/14 03:52:44;;;;;;;12.40;2.10;;;;;;;8.46;100.00;101740.31;5326592;26;20496;-73
2024/04/14 03:55:09;;;;;;;14.53;2.10;;;;;;;9.08;100.00;101836.25;5358615;26;20611;-74
2024/04/14 03:57:34;;;;;;;11.70;2.10;;;;;;;9.18;100.00;101820.03;5355788;26;20805;-73
2024/04/14 04:00:00;;;;;;;8.77;1.50;;;;;;;9.88;100.00;101950.81;5356554;26;20246;-73
2024/04/14 04:02:26;;;;;;;10.33;1.87;;;;;;;10.27;100.00;102027.94;5326064;26;20277;-73
2024/04/14 04:04:51;;;;;;;13.20;2.43;;;;;;;8.35;100.00;101703.16;5330796;26;20671;-74
2024/04/14 04:07:16;;;;;;;16.87;2.17;;;;;;;9.06;100.00;101859.69;5336193;26;20261;-73
2024/04/14 04:09:42;;;;;;;12.80;2.23;;;;;;;9.44;100.00;101922.50;5359675;26;20242;-73
2024/04/14 04:12:08;;;;;;;10.53;2.00;;;;;;;10.10;100.00;102051.19;5358331;26;20246;-73
2024/04/14 04:14:33;;;;;;;10.13;1.93;;;;;;;8.18;100.00;101699.59;5360723;26;20249;-73
2024/04/14 04:16:58;;;;;;;11.43;2.60;;;;;;;10.77;100.00;102118.13;5353071;26;20284;-73
2024/04/14 04:19:24;;;;;;;9.70;1.93;;;;;;;7.99;100.00;101706.03;5335892;26;20329;-73
2024/04/14 04:21:49;;;;;;;16.30;2.50;;;;;;;9.21;100.00;101948.22;5336442;26;20283;-73
2024/04/14 04:24:15;;;;;;;11.57;2.00;;;;;;;8.18;100.00;101745.00;5358116;26;20955;-73
2024/04/14 04:26:40;;;;;;;9.40;1.87;;;;;;;8.43;100.00;101751.31;5357412;26;20681;-73
2024/04/14 04:29:06;;;;;;;13.43;2.13;;;;;;;7.65;100.00;101665.97;5363221;26;20657;-73
2024/04/14 04:31:31;;;;;;;18.70;2.37;;;;;;;10.00;100.00;102005.78;5327654;26;20300;-73
2024/04/14 04:33:56;;;;;;;10.60;2.20;;;;;;;8.61;100.00;101794.00;5355633;26;20243;-73
2024/04/14 04:36:22;;;;;;;11.50;2.70;;;;;;;9.01;100.00;101875.38;5326519;26;20250;-73
2024/04/14 04:38:47;;;;;;;10.40;2.20;;;;;;;8.87;100.00;101846.56;5360689;26;20238;-73
2024/04/14 04:41:13;;;;;;;12.90;1.80;;;;;;;9.00;100.00;101854.97;5357737;26;20660;-73
2024/04/14 04:43:39;;;;;;;14.87;2.60;;;;;;;10.35;100.00;102103.84;5324612;26;20250;-74
2024/04/14 04:46:05;;;;;;;9.77;1.53;;;;;;;8.03;100.00;101751.97;5338637;26;20243;-75
2024/04/14 04:48:30;;;;;;;10.53;2.03;;;;;;;9.53;100.00;102006.38;5354875;26;20469;-74
2024/04/14 04:50:56;;;;;;;9.13;2.30;;;;;;;8.91;100.00;101896.94;5355966;26;20288;-74
2024/04/14 04:53:22;;;;;;;12.63;2.40;;;;;;;9.15;100.00;101881.94;5333529;26;20250;-73
2024/04/14 04:55:47;;;;;;;14.17;1.97;;;;;;;9.69;100.00;101993.03;5357599;26;20902;-73
2024/04/14 04:58:16;;;;;;;11.17;2.40;;;;;;;9.40;100.00;101972.03;5326569;26;20475;-73
2024/04/14 05:00:51;;;;;;;14.40;2.60;;;;;;;7.43;100.00;101656.69;5358436;26;20324;-74
2024/04/14 05:03:17;;;;;;;11.57;1.93;;;;;;;7.91;100.00;101733.53;5329256;26;20482;-73
2024/04/14 05:05:42;;;;;;;13.60;2.20;;;;;;;8.34;100.00;101806.56;5334851;26;21131;-73
2024/04/14 05:08:08;;;;;;;13.60;2.10;;;;;;;7.89;100.00;101764.91;5344072;26;20242;-73
2024/04/14 05:10:33;;;;;;;11.83;2.10;;;;;;;8.38;100.00;101813.28;5351205;26;20736;-74
2024/04/14 05:12:59;;;;;;;13.43;2.20;;;;;;;9.41;100.00;101946.91;5360414;26;20261;-73
2024/04/14 05:15:24;;;;;;;12.23;2.10;;;;;;;9.40;100.00;101989.91;5357663;26;20618;-73
2024/04/14 05:17:49;;;;;;;12.17;2.10;;;;;;;8.66;100.00;101844.34;5361883;26;20293;-74
2024/04/14 05:20:15;;;;;;;13.10;2.60;;;;;;;9.20;100.00;101962.56;5355499;26;20236;-73
2024/04/14 05:22:40;;;;;;;12.60;2.00;;;;;;;8.12;100.00;101804.44;5326874;26;20258;-73
2024/04/14 05:25:06;;;;;;;12.67;1.90;;;;;;;8.95;100.00;101886.72;5357848;26;20257;-73
2024/04/14 05:27:31;;;;;;;10.67;1.63;;;;;;;7.39;100.00;101674.84;5333112;26;20905;-74
2024/04/14 05:29:57;;;;;;;10.47;1.97;;;;;;;8.67;100.00;101889.63;5332947;26;20272;-73
2024/04/14 05:32:22;;;;;;;13.13;2.20;;;;;;;8.77;100.00;101898.38;5331379;26;20332;-73
2024/04/14 05:34:50;;;;;;;12.37;2.07;;;;;;;9.98;100.00;102088.22;5352936;26;20242;-73
2024/04/14 05:37:15;;;;;;;9.93;2.07;;;;;;;8.83;100.00;101918.31;5354546;26;20255;-73
2024/04/14 05:39:41;;;;;;;9.77;1.90;;;;;;;8.88;100.00;101896.41;5358347;26;20610;-73
2024/04/14 05:42:06;;;;;;;13.53;2.00;;;;;;;7.73;100.00;101705.25;5359265;26;20314;-73
2024/04/14 05:44:34;;;;;;;9.03;2.17;;;;;;;10.22;100.00;102114.22;5360855;26;21445;-73
2024/04/14 05:47:00;;;;;;;12.30;2.27;;;;;;;9.34;100.00;101977.19;5335871;26;20250;-74
2024/04/14 05:49:26;;;;;;;7.33;1.80;;;;;;;8.55;100.00;101813.38;5362031;26;21056;-74
2024/04/14 05:51:51;;;;;;;11.93;2.57;;;;;;;8.43;100.00;101806.63;5363709;26;20476;-73
2024/04/14 05:54:17;;;;;;;12.50;2.27;;;;;;;8.89;100.00;101898.09;5362398;26;20597;-73
2024/04/14 05:56:42;;;;;;;9.33;2.10;;;;;;;8.49;100.00;101865.66;5332045;26;20277;-73
2024/04/14 05:59:08;;;;;;;12.13;2.00;;;;;;;9.35;100.00;101933.34;5360155;26;20241;-73
2024/04/14 06:01:33;;;;;;;13.70;2.50;;;;;;;7.73;100.00;101625.97;5334728;26;20254;-73
2024/04/14 06:03:58;;;;;;;9.70;2.03;;;;;;;8.28;100.00;101735.03;5358156;26;21359;-73
2024/04/14 06:06:24;;;;;;;20.13;2.30;;;;;;;8.00;100.00;101683.66;5362270;26;20605;-73
2024/04/14 06:08:52;;;;;;;13.63;2.00;;;;;;;10.50;100.00;102096.00;5359943;26;20246;-73
2024/04/14 06:11:18;;;;;;;12.87;2.20;;;;;;;8.85;100.00;101838.69;5359241;26;20242;-73
2024/04/14 06:13:43;;;;;;;10.20;1.83;;;;;;;8.83;100.00;101832.69;5338337;26;20720;-73
2024/04/14 06:16:09;;;;;;;12.03;2.30;;;;;;;9.10;100.00;101868.22;5360133;26;20237;-74
2024/04/14 06:18:34;;;;;;;12.50;2.13;;;;;;;7.40;100.00;101550.22;5338366;26;20908;-73
2024/04/14 06:21:00;;;;;;;12.00;1.97;;;;;;;8.43;100.00;101750.50;5362141;26;20285;-74
2024/04/14 06:23:25;;;;;;;14.47;2.53;;;;;;;8.04;100.00;101647.63;5338158;26;20374;-73
2024/04/14 06:25:50;;;;;;;9.67;2.00;;;;;;;10.07;100.00;102035.44;5361232;26;20242;-73
2024/04/14 06:28:16;;;;;;;13.07;2.00;;;;;;;8.17;100.00;101659.69;5361666;26;20640;-73
2024/04/14 06:30:42;;;;;;;11.93;2.27;;;;;;;9.76;100.00;101976.28;5334498;26;20261;-74
2024/04/14 06:33:07;;;;;;;13.77;2.23;;;;;;;8.54;100.00;101792.97;5359057;26;20246;-74
2024/04/14 06:35:35;;;;;;;13.27;2.00;;;;;;;9.70;100.00;101908.97;5340123;26;21062;-73
2024/04/14 06:38:01;;;;;;;17.27;2.10;;;;;;;9.70;100.00;101930.38;5338750;26;20237;-74
2024/04/14 06:40:26;;;;;;;9.37;1.67;;;;;;;8.40;100.00;101702.69;5331425;26;20927;-73
2024/04/14 06:42:51;;;;;;;10.63;2.00;;;;;;;9.79;100.00;101954.50;5335892;26;20263;-73
2024/04/14 06:45:17;;;;;;;11.10;2.47;;;;;;;9.96;100.00;101969.59;5336131;26;20245;-74
2024/04/14 06:47:42;;;;;;;12.50;2.93;;;;;;;8.23;100.00;101718.66;5355930;26;20269;-73
2024/04/14 06:50:10;;;;;;;13.27;2.87;;;;;;;9.81;100.00;102011.47;5362461;26;20616;-73
2024/04/14 06:52:35;;;;;;;16.40;2.10;;;;;;;9.59;100.00;101965.53;5334307;26;20251;-73
2024/04/14 06:55:01;;;;;;;14.10;2.10;;;;;;;9.00;100.00;101825.53;5338361;26;20473;-74
2024/04/14 06:57:26;;;;;;;16.77;2.43;;;;;;;11.21;100.00;102215.25;5356970;26;20258;-73
2024/04/14 06:59:51;;;;;;;10.57;2.20;;;;;;;9.19;100.00;101939.50;5362797;26;20355;-73
2024/04/14 07:02:17;;;;;;;8.40;2.30;;;;;;;9.44;100.00;101951.13;5358186;26;21035;-73
2024/04/14 07:04:43;;;;;;;13.17;1.97;;;;;;;10.47;100.00;102128.53;5354648;26;20348;-73
2024/04/14 07:07:08;;;;;;;11.13;1.90;;;;;;;10.05;100.00;102117.88;5334501;26;20328;-73
2024/04/14 07:09:34;;;;;;;10.20;1.80;;;;;;;9.63;100.00;102022.28;5357134;26;20912;-74
2024/04/14 07:11:59;;;;;;;10.07;2.13;;;;;;;8.58;100.00;101878.06;5330554;26;20251;-74
2024/04/14 07:14:24;;;;;;;11.77;2.07;;;;;;;9.75;100.00;102104.06;5332116;26;20301;-74
2024/04/14 07:16:50;;;;;;;10.10;2.30;;;;;;;9.93;100.00;102094.06;5330207;26;20273;-73
2024/04/14 07:19:15;;;;;;;11.47;1.93;;;;;;;9.50;100.00;102084.38;5331123;26;20723;-74
2024/04/14 07:21:41;;;;;;;9.67;1.67;;;;;;;9.10;100.00;101994.00;5362422;26;20310;-73
2024/04/14 07:24:06;;;;;;;16.20;2.00;;;;;;;9.16;100.00;102007.56;5340441;26;20583;-74
2024/04/14 07:26:35;;;;;;;14.10;2.00;;;;;;;9.85;100.00;102079.78;5357253;26;20246;-73
2024/04/14 07:29:00;;;;;;;13.00;2.00;;;;;;;9.99;100.00;102068.44;5359959;26;20293;-74
2024/04/14 07:31:26;;;;;;;16.37;2.23;;;;;;;8.77;100.00;101940.34;5362420;26;20974;-73
2024/04/14 07:34:02;;;;;;;9.10;1.97;;;;;;;9.53;100.00;102022.44;5358408;26;20251;-73
2024/04/14 07:36:28;;;;;;;12.10;2.13;;;;;;;10.10;100.00;102145.88;5358617;26;20255;-73
2024/04/14 07:38:56;;;;;;;10.00;1.93;;;;;;;8.86;100.00;101962.63;5351910;26;20516;-74
2024/04/14 07:41:22;;;;;;;11.50;1.93;;;;;;;8.62;100.00;101917.84;5359832;26;20479;-73
2024/04/14 07:43:47;;;;;;;13.43;2.50;;;;;;;9.30;100.00;102078.41;5329420;26;20542;-74
2024/04/14 07:46:14;;;;;;;10.10;2.27;;;;;;;8.77;100.00;101972.44;5361545;26;20242;-73
2024/04/14 07:48:39;;;;;;;15.30;2.37;;;;;;;8.82;100.00;101983.50;5361495;26;20239;-74
2024/04/14 07:51:05;;;;;;;11.80;2.63;;;;;;;9.37;100.00;102083.97;5362500;26;20525;-73
2024/04/14 07:53:30;;;;;;;9.60;1.60;;;;;;;9.58;100.00;102083.56;5333252;26;20335;-73
2024/04/14 07:55:56;;;;;;;14.20;2.00;;;;;;;9.33;100.00;101992.41;5360051;26;20841;-74
2024/04/14 07:58:22;;;;;;;9.50;1.67;;;;;;;10.49;100.00;102158.69;5336089;26;20340;-73
2024/04/14 08:00:47;;;;;;;13.30;1.97;;;;;;;9.50;100.00;101982.59;5329516;26;20322;-73
2024/04/14 08:03:13;;;;;;;11.73;2.23;;;;;;;9.88;100.00;102061.53;5334715;26;20258;-73
2024/04/14 08:05:38;;;;;;;12.60;2.40;;;;;;;10.29;100.00;102109.06;5338357;26;20254;-72
2024/04/14 08:08:05;;;;;;;9.60;1.57;;;;;;;10.45;100.00;102100.19;5360903;26;20836;-73
2024/04/14 08:10:30;;;;;;;10.57;2.27;;;;;;;9.24;100.00;101940.69;5330379;26;20776;-74
2024/04/14 08:12:56;;;;;;;8.50;1.80;;;;;;;9.73;100.00;102026.50;5358671;26;21264;-73
2024/04/14 08:15:22;;;;;;;19.70;1.97;;;;;;;10.34;100.00;102155.00;5356695;26;21361;-73
2024/04/14 08:17:47;;;;;;;10.60;2.33;;;;;;;9.09;100.00;101944.16;5352566;26;20271;-73
2024/04/14 08:20:13;;;;;;;15.60;2.70;;;;;;;11.52;100.00;102383.81;5360378;26;20521;-74
2024/04/14 08:22:38;;;;;;;12.97;2.10;;;;;;;10.34;100.00;102184.50;5364731;26;20381;-74
2024/04/14 08:25:04;;;;;;;8.00;1.87;;;;;;;10.13;100.00;102120.56;5363554;26;20306;-74
2024/04/14 08:27:30;;;;;;;9.70;1.50;;;;;;;11.14;100.00;102288.59;5361387;26;20381;-74
2024/04/14 08:29:56;;;;;;;9.30;1.67;;;;;;;9.52;100.00;102050.25;5358106;26;20342;-73
2024/04/14 08:32:21;;;;;;;11.80;1.93;;;;;;;10.11;100.00;102184.22;5341932;26;20488;-74
2024/04/14 08:34:47;;;;;;;11.93;2.23;;;;;;;9.55;100.00;102019.63;5340607;26;20238;-74
2024/04/14 08:37:12;;;;;;;14.40;1.90;;;;;;;9.85;100.00;102034.25;5364210;26;20239;-74
2024/04/14 08:39:38;;;;;;;9.30;1.73;;;;;;;9.75;100.00;101967.41;5361400;26;20230;-73
2024/04/14 08:42:07;;;;;;;7.70;1.30;;;;;;;10.93;100.00;102104.69;5363908;26;20689;-74
2024/04/14 08:44:35;;;;;;;10.23;1.67;;;;;;;9.86;100.00;101916.16;5363007;26;20238;-73
2024/04/14 08:47:03;;;;;;;10.70;1.63;;;;;;;10.68;100.00;102066.31;5337191;26;20460;-73
2024/04/14 08:49:29;;;;;;;11.13;2.23;;;;;;;9.61;100.00;101885.84;5332264;26;20488;-73
2024/04/14 08:51:56;;;;;;;13.10;1.60;;;;;;;10.83;100.00;102086.09;5358534;26;20468;-75
2024/04/14 08:54:22;;;;;;;7.73;1.50;;;;;;;9.60;100.00;101884.16;5356518;26;20486;-73
2024/04/14 08:56:54;;;;;;;9.57;1.40;;;;;;;10.79;100.00;102105.38;5361985;26;21451;-73
2024/04/14 08:59:21;;;;;;;7.90;1.70;;;;;;;10.54;100.00;102067.84;5364253;26;20243;-73
2024/04/14 09:01:47;;;;;;;9.70;1.67;;;;;;;10.67;100.00;102101.34;5358668;26;20543;-73
2024/04/14 09:04:15;;;;;;;9.30;1.83;;;;;;;10.26;100.00;101964.56;5354995;26;21067;-73
2024/04/14 09:06:42;;;;;;;8.90;1.63;;;;;;;10.71;100.00;102028.41;5335659;26;20242;-74
2024/04/14 09:09:08;;;;;;;13.17;1.60;;;;;;;10.28;100.00;101960.72;5354092;26;20493;-73
2024/04/14 09:11:34;;;;;;;8.30;1.40;;;;;;;10.76;100.00;102026.06;5353710;26;20581;-73
2024/04/14 09:14:00;;;;;;;11.40;2.40;;;;;;;9.92;100.00;101843.13;5328383;26;20242;-73
2024/04/14 09:16:26;;;;;;;11.70;1.87;;;;;;;10.00;100.00;101878.97;5334053;26;20507;-73
2024/04/14 09:18:55;;;;;;;9.23;1.40;;;;;;;10.55;100.00;102013.16;5360139;26;20231;-75
2024/04/14 09:21:21;;;;;;;7.80;1.50;;;;;;;9.07;100.00;101748.94;5360937;26;20477;-74
2024/04/14 09:23:48;;;;;;;8.70;1.80;;;;;;;10.63;100.00;101974.75;5360878;26;20488;-74
2024/04/14 09:26:14;;;;;;;10.40;1.53;;;;;;;11.21;100.00;101999.56;5338314;26;20629;-74
2024/04/14 09:28:39;;;;;;;10.00;1.60;;;;;;;11.22;100.00;102020.84;5361792;26;20523;-74
2024/04/14 09:31:06;;;;;;;8.00;1.47;;;;;;;10.89;100.00;102009.41;5362529;26;20293;-74
2024/04/14 09:33:32;;;;;;;8.13;1.80;;;;;;;10.35;100.00;101862.50;5360844;26;20266;-74
2024/04/14 09:35:58;;;;;;;6.57;1.40;;;;;;;10.73;100.00;101979.91;5332160;26;20947;-73
2024/04/14 09:38:24;;;;;;;7.07;1.00;;;;;;;10.56;100.00;102019.38;5332124;26;20483;-73
2024/04/14 09:40:52;;;;;;;7.20;1.40;;;;;;;10.33;100.00;101890.50;5336102;26;20246;-73
2024/04/14 09:43:19;;;;;;;6.33;1.23;;;;;;;10.04;100.00;101846.31;5338126;26;20489;-73
2024/04/14 09:45:47;;;;;;;8.27;1.63;;;;;;;9.72;100.00;101766.81;5327034;26;20584;-74
2024/04/14 09:48:13;;;;;;;7.50;1.33;;;;;;;10.24;100.00;101837.84;5338875;26;20866;-74
2024/04/14 09:50:42;;;;;;;8.40;1.43;;;;;;;10.73;100.00;101937.84;5361842;26;20468;-74
2024/04/14 09:53:09;;;;;;;7.70;1.97;;;;;;;11.07;100.00;102034.16;5333647;26;20484;-74
2024/04/14 09:55:35;;;;;;;9.50;1.40;;;;;;;10.63;100.00;101916.56;5361437;26;20470;-74
2024/04/14 09:58:01;;;;;;;10.50;1.50;;;;;;;10.06;100.00;101771.88;5361571;26;20510;-74
2024/04/14 10:00:27;;;;;;;6.50;1.57;;;;;;;11.23;100.00;101963.47;5363167;26;20310;-73
2024/04/14 10:02:56;;;;;;;10.87;1.90;;;;;;;11.47;100.00;102000.09;5329552;26;20778;-73
2024/04/14 10:05:24;;;;;;;8.47;1.73;;;;;;;11.25;100.00;101922.97;5353333;26;20588;-74
2024/04/14 10:07:50;;;;;;;7.70;1.43;;;;;;;11.60;100.00;102052.41;5363924;26;20480;-74
2024/04/14 10:10:16;;;;;;;12.33;1.77;;;;;;;10.35;100.00;101841.03;5360404;26;20463;-73
2024/04/14 10:12:41;;;;;;;11.70;1.70;;;;;;;10.95;100.00;101906.69;5352270;26;20300;-73
2024/04/14 10:15:07;;;;;;;6.93;1.57;;;;;;;11.36;100.00;101970.94;5360082;26;20468;-73
2024/04/14 10:17:33;;;;;;;8.80;1.57;;;;;;;11.05;100.00;101915.38;5359717;26;20296;-73
2024/04/14 10:20:06;;;;;;;9.30;1.67;;;;;;;9.79;100.00;101706.16;5365478;26;20525;-73
2024/04/14 10:22:35;;;;;;;7.80;1.40;;;;;;;12.98;100.00;102163.63;5359052;26;20269;-73
2024/04/14 10:25:01;;;;;;;10.33;1.70;;;;;;;11.69;100.00;101901.72;5359218;26;21032;-73
2024/04/14 10:27:30;;;;;;;6.97;1.27;;;;;;;10.32;100.00;101714.50;5358796;26;20603;-73
2024/04/14 10:29:57;;;;;;;9.83;1.37;;;;;;;11.65;100.00;101911.13;5331609;26;20249;-73
2024/04/14 10:32:22;;;;;;;6.20;1.17;;;;;;;12.75;100.00;102064.03;5329349;26;21050;-74
2024/04/14 10:34:48;;;;;;;8.53;1.60;;;;;;;12.45;100.00;102060.47;5360775;26;20464;-73
2024/04/14 10:37:26;;;;;;;7.37;1.33;;;;;;;12.93;100.00;102162.50;5362017;26;20289;-73
2024/04/14 10:39:55;;;;;;;7.83;2.00;;;;;;;12.16;100.00;102067.41;5360863;26;20288;-73
2024/04/14 10:42:22;;;;;;;9.10;1.90;;;;;;;12.51;100.00;102143.16;5361024;26;20472;-73
2024/04/14 10:44:48;;;;;;;14.37;2.03;;;;;;;11.77;100.00;102027.13;5329309;26;20535;-73
2024/04/14 10:47:19;;;;;;;8.73;1.63;;;;;;;12.07;100.00;102030.00;5360018;26;20947;-73
2024/04/14 10:49:50;;;;;;;6.40;1.60;;;;;;;12.71;100.00;102080.75;5363718;26;20280;-73
2024/04/14 10:52:16;;;;;;;8.17;1.73;;;;;;;12.01;100.00;102012.72;5366200;26;20594;-73
2024/04/14 10:54:41;;;;;;;6.97;1.40;;;;;;;12.31;100.00;102058.56;5365725;26;20478;-73
2024/04/14 10:57:08;;;;;;;7.27;1.37;;;;;;;12.28;100.00;102002.41;5361650;26;20542;-73
2024/04/14 10:59:34;;;;;;;9.03;1.50;;;;;;;12.99;100.00;102169.84;5332231;26;20848;-73
2024/04/14 11:02:00;;;;;;;7.93;1.73;;;;;;;12.93;100.00;102159.78;5340892;26;20488;-73
2024/04/14 11:04:26;;;;;;;7.43;1.63;;;;;;;12.12;100.00;102028.44;5335515;26;20226;-73
2024/04/14 11:06:52;;;;;;;7.83;1.60;;;;;;;12.97;100.00;102137.72;5364117;26;20738;-73
2024/04/14 11:09:18;;;;;;;9.17;1.90;;;;;;;12.31;100.00;102034.34;5330952;26;20522;-73
2024/04/14 11:11:44;;;;;;;11.63;1.97;;;;;;;12.46;100.00;102034.38;5335865;26;20329;-73